createdAt,value
2018-06-17T00:00:54.458Z,100741.08
2018-06-17T00:03:22.962Z,100725.18
2018-06-17T00:05:51.479Z,100737.66
2018-06-17T00:08:20.015Z,100733.31
2018-06-17T00:10:48.647Z,100732.02
2018-06-17T00:13:17.226Z,100733.55
2018-06-17T00:15:45.863Z,100734.17
2018-06-17T00:18:14.430Z,100732.31
2018-06-17T00:20:42.971Z,100731.45
2018-06-17T00:23:11.514Z,100729.56
2018-06-17T00:25:40.083Z,100733.55
2018-06-17T00:28:08.777Z,100726.51
2018-06-17T00:30:37.426Z,100726.14
2018-06-17T00:33:06.047Z,100725.58
2018-06-17T00:35:34.676Z,100717.81
2018-06-17T00:38:03.315Z,100714.62
2018-06-17T00:40:32.338Z,100716.24
2018-06-17T00:43:00.942Z,100716.13
2018-06-17T00:45:29.523Z,100709.50
2018-06-17T00:47:58.040Z,100715.77
2018-06-17T00:50:26.534Z,100709.33
2018-06-17T00:52:55.066Z,100709.33
2018-06-17T00:55:23.702Z,100707.23
2018-06-17T00:57:53.057Z,100704.39
2018-06-17T01:00:23.002Z,100703.92
2018-06-17T01:02:51.600Z,100709.91
2018-06-17T01:05:20.121Z,100699.75
2018-06-17T01:07:48.730Z,100701.74
2018-06-17T01:10:17.349Z,100701.91
2018-06-17T01:12:45.931Z,100702.28
2018-06-17T01:15:14.430Z,100696.50
2018-06-17T01:17:42.934Z,100697.73
2018-06-17T01:20:11.476Z,100689.41
2018-06-17T01:22:40.161Z,100696.77
2018-06-17T01:25:08.646Z,100698.59
2018-06-17T01:27:37.330Z,100691.27
2018-06-17T01:30:05.958Z,100699.43
2018-06-17T01:32:34.491Z,100704.00
2018-06-17T01:35:03.010Z,100689.77
2018-06-17T01:37:31.645Z,100689.77
2018-06-17T01:40:00.241Z,100684.83
2018-06-17T01:42:28.770Z,100690.91
2018-06-17T01:44:57.322Z,100692.42
2018-06-17T01:47:25.940Z,100690.73
2018-06-17T01:49:54.714Z,100686.25
2018-06-17T01:52:23.360Z,100677.56
2018-06-17T01:54:52.199Z,100676.14
2018-06-17T01:57:20.733Z,100671.09
2018-06-17T01:59:49.419Z,100668.91
2018-06-17T02:02:17.998Z,100676.30
2018-06-17T02:04:51.701Z,100671.39
2018-06-17T02:07:25.592Z,100645.25
2018-06-17T02:09:59.470Z,100673.95
2018-06-17T02:12:28.022Z,100681.64
2018-06-17T02:14:57.911Z,100677.06
2018-06-17T02:17:27.242Z,100676.97
2018-06-17T02:19:56.292Z,100670.23
2018-06-17T02:22:25.239Z,100662.27
2018-06-17T02:24:55.519Z,100677.36
2018-06-17T02:27:24.172Z,100679.92
2018-06-17T02:29:52.698Z,100672.16
2018-06-17T02:32:21.332Z,100674.21
2018-06-17T02:34:49.953Z,100664.19
2018-06-17T02:37:18.584Z,100674.61
2018-06-17T02:39:47.184Z,100674.81
2018-06-17T02:42:16.258Z,100666.25
2018-06-17T02:44:44.900Z,100670.63
2018-06-17T02:47:18.503Z,100666.25
2018-06-17T02:49:48.613Z,100673.45
2018-06-17T02:52:22.435Z,100671.45
2018-06-17T02:54:51.009Z,100669.63
2018-06-17T02:57:20.611Z,100665.84
2018-06-17T02:59:49.158Z,100664.89
2018-06-17T03:02:17.780Z,100650.28
2018-06-17T03:04:46.413Z,100656.72
2018-06-17T03:07:15.051Z,100652.90
2018-06-17T03:09:43.735Z,100638.89
2018-06-17T03:12:12.320Z,100638.23
2018-06-17T03:14:40.901Z,100639.93
2018-06-17T03:17:09.588Z,100646.86
2018-06-17T03:19:38.171Z,100650.61
2018-06-17T03:22:06.853Z,100639.83
2018-06-17T03:24:40.687Z,100642.88
2018-06-17T03:27:14.446Z,100635.32
2018-06-17T03:29:48.269Z,100630.17
2018-06-17T03:32:22.077Z,100623.73
2018-06-17T03:34:55.821Z,100618.06
2018-06-17T03:37:24.463Z,100620.82
2018-06-17T03:39:53.046Z,100621.45
2018-06-17T03:42:21.628Z,100624.10
2018-06-17T03:44:50.258Z,100615.31
2018-06-17T03:47:18.896Z,100614.45
2018-06-17T03:49:47.478Z,100613.16
2018-06-17T03:52:16.061Z,100614.45
2018-06-17T03:54:44.746Z,100605.41
2018-06-17T03:57:13.373Z,100606.07
2018-06-17T03:59:41.951Z,100609.85
2018-06-17T04:02:10.599Z,100604.70
2018-06-17T04:04:44.462Z,100595.88
2018-06-17T04:07:14.112Z,100592.18
2018-06-17T04:09:42.738Z,100595.77
2018-06-17T04:12:11.239Z,100603.16
2018-06-17T04:14:40.167Z,100593.66
2018-06-17T04:17:12.745Z,100600.88
2018-06-17T04:19:41.429Z,100601.99
2018-06-17T04:22:10.358Z,100590.30
2018-06-17T04:24:38.946Z,100603.33
2018-06-17T04:27:08.203Z,100597.80
2018-06-17T04:29:37.000Z,100588.48
2018-06-17T04:32:05.776Z,100591.97
2018-06-17T04:34:34.462Z,100592.28
2018-06-17T04:37:02.984Z,100594.73
2018-06-17T04:39:31.730Z,100583.48
2018-06-17T04:42:00.417Z,100581.38
2018-06-17T04:44:29.010Z,100577.07
2018-06-17T04:46:57.663Z,100565.63
2018-06-17T04:49:26.268Z,100566.63
2018-06-17T04:51:55.567Z,100571.91
2018-06-17T04:54:24.198Z,100572.31
2018-06-17T04:56:52.786Z,100565.63
2018-06-17T04:59:21.725Z,100552.49
2018-06-17T05:01:50.972Z,100547.78
2018-06-17T05:04:19.490Z,100558.70
2018-06-17T05:06:48.088Z,100566.89
2018-06-17T05:09:16.673Z,100565.66
2018-06-17T05:11:45.160Z,100565.92
2018-06-17T05:14:13.735Z,100572.13
2018-06-17T05:16:42.278Z,100565.13
2018-06-17T05:19:10.820Z,100565.84
2018-06-17T05:21:39.618Z,100560.02
2018-06-17T05:24:08.271Z,100556.04
2018-06-17T05:26:36.802Z,100564.02
2018-06-17T05:29:05.436Z,100560.02
2018-06-17T05:31:34.122Z,100557.16
2018-06-17T05:34:02.706Z,100563.94
2018-06-17T05:36:31.382Z,100563.72
2018-06-17T05:39:00.075Z,100548.41
2018-06-17T05:41:28.906Z,100552.21
2018-06-17T05:43:57.552Z,100564.84
2018-06-17T05:46:26.233Z,100547.34
2018-06-17T05:48:54.750Z,100554.79
2018-06-17T05:51:23.363Z,100548.57
2018-06-17T05:53:51.981Z,100536.05
2018-06-17T05:56:21.998Z,100541.50
2018-06-17T05:58:50.683Z,100557.11
2018-06-17T06:01:19.575Z,100552.47
2018-06-17T06:03:48.467Z,100544.83
2018-06-17T06:06:17.077Z,100546.17
2018-06-17T06:08:45.938Z,100539.52
2018-06-17T06:11:14.626Z,100541.13
2018-06-17T06:13:43.258Z,100534.20
2018-06-17T06:16:11.994Z,100544.48
2018-06-17T06:18:40.722Z,100543.40
2018-06-17T06:21:09.365Z,100543.91
2018-06-17T06:23:37.875Z,100552.47
2018-06-17T06:26:06.479Z,100549.58
2018-06-17T06:28:35.113Z,100550.33
2018-06-17T06:31:03.849Z,100548.13
2018-06-17T06:33:32.535Z,100552.78
2018-06-17T06:36:01.118Z,100554.27
2018-06-17T06:38:29.828Z,100553.55
2018-06-17T06:40:58.409Z,100555.98
2018-06-17T06:43:26.966Z,100552.34
2018-06-17T06:45:55.601Z,100549.11
2018-06-17T06:48:24.183Z,100545.84
2018-06-17T06:50:52.736Z,100545.92
2018-06-17T06:53:21.350Z,100546.14
2018-06-17T06:55:49.932Z,100542.52
2018-06-17T06:58:18.511Z,100535.95
2018-06-17T07:00:47.098Z,100537.36
2018-06-17T07:03:26.947Z,100531.26
2018-06-17T07:06:06.670Z,100529.83
2018-06-17T07:08:46.433Z,100532.16
2018-06-17T07:11:14.970Z,100541.27
2018-06-17T07:13:43.542Z,100521.48
2018-06-17T07:16:23.349Z,100522.75
2018-06-17T07:18:51.955Z,100523.31
2018-06-17T07:21:20.612Z,100523.23
2018-06-17T07:23:49.246Z,100512.97
2018-06-17T07:26:30.680Z,100520.84
2018-06-17T07:29:10.530Z,100521.81
2018-06-17T07:31:39.520Z,100514.31
2018-06-17T07:34:08.882Z,100524.84
2018-06-17T07:36:38.166Z,100521.95
2018-06-17T07:39:16.699Z,100523.50
2018-06-17T07:41:46.227Z,100520.10
2018-06-17T07:44:14.824Z,100519.27
2018-06-17T07:46:43.509Z,100530.77
2018-06-17T07:49:35.440Z,100530.52
2018-06-17T07:52:16.310Z,100525.08
2018-06-17T07:54:45.345Z,100525.91
2018-06-17T07:57:16.244Z,100517.91
2018-06-17T07:59:44.879Z,100522.41
2018-06-17T08:02:14.021Z,100510.15
2018-06-17T08:04:42.626Z,100506.77
2018-06-17T08:07:11.242Z,100502.39
2018-06-17T08:09:40.384Z,100497.75
2018-06-17T08:12:09.785Z,100495.23
2018-06-17T08:14:38.534Z,100499.14
2018-06-17T08:17:07.142Z,100503.27
2018-06-17T08:19:37.247Z,100498.89
2018-06-17T08:22:05.960Z,100499.98
2018-06-17T08:24:35.099Z,100502.05
2018-06-17T08:27:03.844Z,100500.23
2018-06-17T08:29:32.480Z,100495.59
2018-06-17T08:32:01.012Z,100503.20
2018-06-17T08:34:29.634Z,100504.19
2018-06-17T08:36:58.277Z,100507.48
2018-06-17T08:39:26.860Z,100505.56
2018-06-17T08:41:55.443Z,100507.39
2018-06-17T08:44:24.025Z,100498.80
2018-06-17T08:46:52.632Z,100496.25
2018-06-17T08:49:21.501Z,100493.83
2018-06-17T08:51:50.127Z,100496.50
2018-06-17T08:54:18.786Z,100495.36
2018-06-17T08:56:47.459Z,100488.98
2018-06-17T08:59:15.978Z,100491.50
2018-06-17T09:01:44.833Z,100480.97
2018-06-17T09:04:14.072Z,100481.33
2018-06-17T09:06:42.964Z,100481.21
2018-06-17T09:09:12.962Z,100483.83
2018-06-17T09:11:41.616Z,100469.39
2018-06-17T09:14:10.296Z,100472.53
2018-06-17T09:16:38.822Z,100473.46
2018-06-17T09:19:07.398Z,100469.30
2018-06-17T09:21:36.048Z,100474.64
2018-06-17T09:24:04.635Z,100477.31
2018-06-17T09:26:33.154Z,100470.98
2018-06-17T09:29:02.408Z,100477.18
2018-06-17T09:31:30.991Z,100468.19
2018-06-17T09:33:59.781Z,100463.70
2018-06-17T09:36:28.464Z,100468.79
2018-06-17T09:38:56.990Z,100466.73
2018-06-17T09:41:25.619Z,100468.13
2018-06-17T09:43:54.137Z,100465.73
2018-06-17T09:46:22.694Z,100470.13
2018-06-17T09:48:51.297Z,100464.05
2018-06-17T09:51:20.007Z,100461.63
2018-06-17T09:53:48.585Z,100455.81
2018-06-17T09:56:17.123Z,100450.73
2018-06-17T09:58:46.408Z,100448.16
2018-06-17T10:01:16.159Z,100445.05
2018-06-17T10:03:44.822Z,100443.30
2018-06-17T10:06:13.506Z,100435.42
2018-06-17T10:08:42.172Z,100434.80
2018-06-17T10:11:11.612Z,100427.30
2018-06-17T10:13:43.199Z,100421.17
2018-06-17T10:16:12.970Z,100411.61
2018-06-17T10:18:41.951Z,100404.93
2018-06-17T10:21:10.553Z,100407.14
2018-06-17T10:23:39.134Z,100414.28
2018-06-17T10:26:07.905Z,100408.30
2018-06-17T10:28:36.797Z,100417.38
2018-06-17T10:31:06.570Z,100411.91
2018-06-17T10:33:36.022Z,100408.80
2018-06-17T10:36:04.695Z,100412.20
2018-06-17T10:38:33.330Z,100412.47
2018-06-17T10:41:01.898Z,100403.83
2018-06-17T10:43:31.892Z,100407.83
2018-06-17T10:46:00.568Z,100405.98
2018-06-17T10:48:29.297Z,100406.70
2018-06-17T10:50:57.940Z,100407.69
2018-06-17T10:53:26.616Z,100408.12
2018-06-17T10:55:55.299Z,100413.33
2018-06-17T10:58:23.887Z,100408.83
2018-06-17T11:00:52.568Z,100415.93
2018-06-17T11:03:21.199Z,100417.42
2018-06-17T11:05:49.744Z,100422.05
2018-06-17T11:08:18.423Z,100407.74
2018-06-17T11:10:47.106Z,100412.73
2018-06-17T11:13:16.521Z,100408.19
2018-06-17T11:15:45.194Z,100412.30
2018-06-17T11:18:13.791Z,100420.91
2018-06-17T11:20:42.464Z,100414.52
2018-06-17T11:23:11.002Z,100421.64
2018-06-17T11:25:39.586Z,100425.80
2018-06-17T11:28:08.895Z,100420.14
2018-06-17T11:30:37.610Z,100418.50
2018-06-17T11:33:06.196Z,100416.53
2018-06-17T11:35:34.692Z,100411.09
2018-06-17T11:38:03.312Z,100413.59
2018-06-17T11:40:32.496Z,100430.20
2018-06-17T11:43:01.142Z,100432.70
2018-06-17T11:45:29.932Z,100430.80
2018-06-17T11:47:58.554Z,100426.89
2018-06-17T11:50:27.118Z,100429.72
2018-06-17T11:52:55.678Z,100434.55
2018-06-17T11:55:24.261Z,100426.34
2018-06-17T11:57:52.758Z,100432.47
2018-06-17T12:00:21.351Z,100432.40
2018-06-17T12:02:50.008Z,100440.89
2018-06-17T12:05:18.591Z,100424.43
2018-06-17T12:07:47.634Z,100425.47
2018-06-17T12:10:16.269Z,100427.05
2018-06-17T12:12:45.057Z,100429.77
2018-06-17T12:15:13.588Z,100439.14
2018-06-17T12:17:42.222Z,100439.14
2018-06-17T12:20:10.807Z,100430.31
2018-06-17T12:22:39.316Z,100432.92
2018-06-17T12:25:07.973Z,100433.59
2018-06-17T12:27:36.502Z,100433.05
2018-06-17T12:30:05.239Z,100432.66
2018-06-17T12:32:35.051Z,100432.92
2018-06-17T12:35:03.638Z,100444.88
2018-06-17T12:37:32.216Z,100441.89
2018-06-17T12:40:00.726Z,100439.36
2018-06-17T12:42:29.439Z,100427.22
2018-06-17T12:44:59.396Z,100436.78
2018-06-17T12:47:28.084Z,100461.81
2018-06-17T12:49:56.649Z,100480.69
2018-06-17T12:52:25.270Z,100492.81
2018-06-17T12:54:53.846Z,100502.54
2018-06-17T12:57:23.726Z,100513.78
2018-06-17T12:59:52.253Z,100506.16
2018-06-17T13:02:20.768Z,100486.67
2018-06-17T13:04:50.008Z,100487.94
2018-06-17T13:07:18.687Z,100489.30
2018-06-17T13:09:47.222Z,100482.42
2018-06-17T13:12:15.978Z,100485.21
2018-06-17T13:14:44.542Z,100471.63
2018-06-17T13:17:13.126Z,100469.48
2018-06-17T13:19:41.951Z,100468.82
2018-06-17T13:22:10.543Z,100459.35
2018-06-17T13:24:39.132Z,100441.55
2018-06-17T13:27:07.666Z,100438.86
2018-06-17T13:29:36.859Z,100463.25
2018-06-17T13:32:05.409Z,100485.09
2018-06-17T13:34:33.922Z,100492.36
2018-06-17T13:37:02.608Z,100335.06
2018-06-17T13:39:31.234Z,100483.78
2018-06-17T13:42:00.330Z,100489.64
2018-06-17T13:44:30.200Z,100479.72
2018-06-17T13:46:58.724Z,100477.53
2018-06-17T13:49:27.425Z,100488.81
2018-06-17T13:51:55.978Z,100486.62
2018-06-17T13:54:24.635Z,100480.09
2018-06-17T13:56:53.834Z,100480.27
2018-06-17T13:59:22.517Z,100478.34
2018-06-17T14:01:51.422Z,100474.59
2018-06-17T14:04:20.705Z,100480.58
2018-06-17T14:06:49.288Z,100491.70
2018-06-17T14:09:17.986Z,100486.62
2018-06-17T14:11:47.018Z,100487.55
2018-06-17T14:14:16.522Z,100493.50
2018-06-17T14:16:46.079Z,100492.23
2018-06-17T14:19:14.706Z,100495.91
2018-06-17T14:21:43.247Z,100497.95
2018-06-17T14:24:11.827Z,100501.05
2018-06-17T14:26:40.324Z,100498.58
2018-06-17T14:29:08.919Z,100506.39
2018-06-17T14:31:37.514Z,100506.59
2018-06-17T14:34:06.627Z,100505.08
2018-06-17T14:36:35.282Z,100505.61
2018-06-17T14:39:04.906Z,100504.80
2018-06-17T14:41:33.546Z,100509.13
2018-06-17T14:44:07.374Z,100508.35
2018-06-17T14:46:41.102Z,100503.87
2018-06-17T14:49:15.270Z,100517.88
2018-06-17T14:51:49.073Z,100509.95
2018-06-17T14:54:17.704Z,100515.28
2018-06-17T14:56:46.263Z,100515.34
2018-06-17T14:59:14.903Z,100505.98
2018-06-17T15:01:43.612Z,100521.74
2018-06-17T15:04:12.280Z,100522.02
2018-06-17T15:06:40.852Z,100522.81
2018-06-17T15:09:14.972Z,100528.68
2018-06-17T15:11:51.510Z,100542.37
2018-06-17T15:14:20.297Z,100529.88
2018-06-17T15:16:48.933Z,100523.25
2018-06-17T15:19:17.721Z,100534.72
2018-06-17T15:21:46.408Z,100548.28
2018-06-17T15:24:15.553Z,100544.51
2018-06-17T15:26:44.106Z,100535.65
2018-06-17T15:29:13.996Z,100546.56
2018-06-17T15:31:47.684Z,100540.18
2018-06-17T15:34:21.387Z,100555.56
2018-06-17T15:36:55.242Z,100552.92
2018-06-17T15:39:28.985Z,100550.31
2018-06-17T15:41:58.414Z,100543.06
2018-06-17T15:44:27.104Z,100538.98
2018-06-17T15:46:56.301Z,100528.87
2018-06-17T15:49:25.297Z,100534.75
2018-06-17T15:51:53.910Z,100542.34
2018-06-17T15:54:22.735Z,100575.14
2018-06-17T15:56:51.846Z,100584.44
2018-06-17T15:59:20.462Z,100591.02
2018-06-17T16:01:49.978Z,100586.69
2018-06-17T16:04:20.361Z,100597.84
2018-06-17T16:06:48.898Z,100589.61
2018-06-17T16:09:17.645Z,100591.17
2018-06-17T16:11:52.059Z,100589.00
2018-06-17T16:14:26.590Z,100592.38
2018-06-17T16:17:00.407Z,100595.78
2018-06-17T16:19:34.395Z,100593.86
2018-06-17T16:22:03.250Z,100584.52
2018-06-17T16:24:31.783Z,100581.46
2018-06-17T16:27:00.433Z,100584.62
2018-06-17T16:29:28.986Z,100581.91
2018-06-17T16:31:57.826Z,100581.88
2018-06-17T16:34:27.103Z,100578.23
2018-06-17T16:36:55.739Z,100587.67
2018-06-17T16:39:25.043Z,100585.00
2018-06-17T16:41:53.690Z,100575.98
2018-06-17T16:44:22.199Z,100584.18
2018-06-17T16:46:50.821Z,100585.61
2018-06-17T16:49:19.398Z,100587.33
2018-06-17T16:51:53.344Z,100590.00
2018-06-17T16:54:27.228Z,100595.12
2018-06-17T16:57:01.164Z,100597.34
2018-06-17T16:59:34.867Z,100601.02
2018-06-17T17:02:04.102Z,100605.30
2018-06-17T17:04:35.242Z,100606.42
2018-06-17T17:07:04.455Z,100602.77
2018-06-17T17:09:33.038Z,100611.05
2018-06-17T17:12:01.615Z,100607.30
2018-06-17T17:14:30.356Z,100608.23
2018-06-17T17:16:58.939Z,100607.75
2018-06-17T17:19:27.545Z,100609.20
2018-06-17T17:21:56.206Z,100617.00
2018-06-17T17:24:24.995Z,100615.67
2018-06-17T17:26:53.622Z,100618.22
2018-06-17T17:29:22.262Z,100610.34
2018-06-17T17:31:56.887Z,100610.94
2018-06-17T17:34:30.691Z,100615.42
2018-06-17T17:37:04.397Z,100610.92
2018-06-17T17:39:38.409Z,100619.17
2018-06-17T17:42:07.295Z,100618.95
2018-06-17T17:44:41.048Z,100623.42
2018-06-17T17:47:15.827Z,100620.98
2018-06-17T17:49:45.075Z,100617.22
2018-06-17T17:52:14.292Z,100614.94
2018-06-17T17:54:43.385Z,100619.06
2018-06-17T17:57:11.996Z,100629.00
2018-06-17T17:59:40.494Z,100631.18
2018-06-17T18:02:09.167Z,100625.49
2018-06-17T18:04:37.858Z,100635.45
2018-06-17T18:07:06.447Z,100643.42
2018-06-17T18:09:35.429Z,100637.13
2018-06-17T18:12:04.368Z,100632.76
2018-06-17T18:14:33.106Z,100642.36
2018-06-17T18:17:01.842Z,100644.29
2018-06-17T18:19:30.478Z,100640.30
2018-06-17T18:21:58.998Z,100637.95
2018-06-17T18:24:28.007Z,100640.98
2018-06-17T18:27:01.961Z,100646.55
2018-06-17T18:29:35.749Z,100643.38
2018-06-17T18:32:11.620Z,100639.89
2018-06-17T18:34:45.936Z,100645.70
2018-06-17T18:37:14.626Z,100645.43
2018-06-17T18:39:43.162Z,100649.03
2018-06-17T18:42:12.386Z,100651.30
2018-06-17T18:44:40.943Z,100657.95
2018-06-17T18:47:09.517Z,100658.42
2018-06-17T18:49:38.906Z,100646.91
2018-06-17T18:52:09.295Z,100654.42
2018-06-17T18:54:37.947Z,100649.21
2018-06-17T18:57:06.664Z,100642.77
2018-06-17T18:59:36.374Z,100655.86
2018-06-17T19:02:05.673Z,100656.20
2018-06-17T19:04:34.280Z,100660.78
2018-06-17T19:07:03.759Z,100656.78
2018-06-17T19:09:37.565Z,100659.17
2018-06-17T19:12:11.678Z,100648.74
2018-06-17T19:14:45.437Z,100649.36
2018-06-17T19:17:19.127Z,100659.62
2018-06-17T19:19:47.830Z,100653.94
2018-06-17T19:22:16.454Z,100659.49
2018-06-17T19:24:44.986Z,100653.81
2018-06-17T19:27:13.722Z,100660.47
2018-06-17T19:29:42.458Z,100659.72
2018-06-17T19:32:11.035Z,100648.70
2018-06-17T19:34:39.683Z,100642.28
2018-06-17T19:37:08.361Z,100655.37
2018-06-17T19:39:36.884Z,100651.95
2018-06-17T19:42:05.484Z,100651.95
2018-06-17T19:44:34.007Z,100649.30
2018-06-17T19:47:02.609Z,100655.95
2018-06-17T19:49:36.396Z,100658.97
2018-06-17T19:52:10.106Z,100657.39
2018-06-17T19:55:45.649Z,100661.23
2018-06-17T19:58:19.426Z,100663.25
2018-06-17T20:00:50.293Z,100667.11
2018-06-17T20:03:18.770Z,100677.02
2018-06-17T20:05:47.354Z,100672.77
2018-06-17T20:08:15.937Z,100679.19
2018-06-17T20:10:44.602Z,100684.50
2018-06-17T20:13:13.155Z,100681.95
2018-06-17T20:15:41.779Z,100681.53
2018-06-17T20:18:10.474Z,100691.88
2018-06-17T20:20:39.098Z,100695.59
2018-06-17T20:23:07.610Z,100694.08
2018-06-17T20:25:36.126Z,100700.38
2018-06-17T20:28:04.725Z,100698.54
2018-06-17T20:30:34.139Z,100705.30
2018-06-17T20:33:08.321Z,100706.56
2018-06-17T20:35:41.982Z,100709.62
2018-06-17T20:38:15.930Z,100702.78
2018-06-17T20:40:49.823Z,100710.95
2018-06-17T20:44:21.725Z,100706.09
2018-06-17T20:46:50.232Z,100697.90
2018-06-17T20:49:19.076Z,100713.06
2018-06-17T20:51:47.579Z,100714.40
2018-06-17T20:54:16.078Z,100722.02
2018-06-17T20:56:44.658Z,100724.17
2018-06-17T20:59:13.250Z,100726.95
2018-06-17T21:01:41.747Z,100720.15
2018-06-17T21:04:10.368Z,100730.03
2018-06-17T21:06:39.053Z,100727.59
2018-06-17T21:09:09.994Z,100728.77
2018-06-17T21:11:38.576Z,100740.80
2018-06-17T21:14:07.361Z,100738.56
2018-06-17T21:16:35.983Z,100732.13
2018-06-17T21:19:09.851Z,100732.70
2018-06-17T21:21:43.647Z,100734.42
2018-06-17T21:24:17.423Z,100742.29
2018-06-17T21:26:51.217Z,100736.84
2018-06-17T21:29:19.938Z,100736.00
2018-06-17T21:31:48.438Z,100737.80
2018-06-17T21:34:17.120Z,100730.43
2018-06-17T21:36:45.718Z,100741.06
2018-06-17T21:39:14.331Z,100740.67
2018-06-17T21:41:42.970Z,100739.95
2018-06-17T21:44:11.517Z,100741.95
2018-06-17T21:46:40.074Z,100735.25
2018-06-17T21:49:08.720Z,100747.79
2018-06-17T21:51:37.303Z,100746.25
2018-06-17T21:54:05.890Z,100747.84
2018-06-17T21:56:34.577Z,100742.81
2018-06-17T21:59:03.303Z,100741.64
2018-06-17T22:01:31.940Z,100742.21
2018-06-17T22:04:05.561Z,100745.16
2018-06-17T22:06:34.125Z,100739.09
2018-06-17T22:09:07.984Z,100749.72
2018-06-17T22:11:41.670Z,100754.47
2018-06-17T22:14:15.350Z,100753.97
2018-06-17T22:16:49.140Z,100751.70
2018-06-17T22:19:17.724Z,100742.39
2018-06-17T22:21:46.349Z,100748.65
2018-06-17T22:24:14.887Z,100742.86
2018-06-17T22:26:43.573Z,100747.92
2018-06-17T22:29:12.156Z,100753.23
2018-06-17T22:31:41.047Z,100748.13
2018-06-17T22:34:09.548Z,100757.33
2018-06-17T22:36:38.047Z,100755.71
2018-06-17T22:39:08.742Z,100752.69
2018-06-17T22:41:37.874Z,100757.80
2018-06-17T22:44:06.466Z,100756.11
2018-06-17T22:46:35.103Z,100759.49
2018-06-17T22:49:03.578Z,100757.80
2018-06-17T22:51:32.289Z,100759.49
2018-06-17T22:54:12.066Z,100758.38
2018-06-17T22:56:46.023Z,100759.91
2018-06-17T22:59:19.829Z,100759.18
2018-06-17T23:02:52.309Z,100763.19
2018-06-17T23:05:26.094Z,100760.34
2018-06-17T23:08:00.023Z,100761.11
2018-06-17T23:10:28.607Z,100762.64
2018-06-17T23:12:57.188Z,100763.25
2018-06-17T23:15:25.774Z,100764.28
2018-06-17T23:17:54.290Z,100762.48
2018-06-17T23:20:22.778Z,100757.02
2018-06-17T23:22:51.426Z,100764.78
2018-06-17T23:25:19.923Z,100766.47
2018-06-17T23:27:48.402Z,100758.86
2018-06-17T23:30:16.962Z,100763.45
2018-06-17T23:32:45.550Z,100762.95
2018-06-17T23:35:14.066Z,100775.02
2018-06-17T23:37:42.570Z,100779.66
2018-06-17T23:40:11.196Z,100780.13
2018-06-17T23:42:39.773Z,100775.02
2018-06-17T23:45:08.356Z,100773.12
2018-06-17T23:47:42.264Z,100771.79
2018-06-17T23:50:16.007Z,100771.03
2018-06-17T23:52:49.727Z,100776.73
2018-06-17T23:55:23.480Z,100767.91
2018-06-17T23:57:52.162Z,100771.53
